createdAt,value
2023-07-18T00:04:09.082Z,80.01
2023-07-18T00:09:10.827Z,80.56
2023-07-18T00:14:12.420Z,80.40
2023-07-18T00:19:13.981Z,81.38
2023-07-18T00:24:16.190Z,81.56
2023-07-18T00:29:18.182Z,82.21
2023-07-18T00:34:19.909Z,82.72
2023-07-18T00:39:21.502Z,82.87
2023-07-18T00:44:23.070Z,83.01
2023-07-18T00:49:26.818Z,83.22
2023-07-18T00:54:29.667Z,83.12
2023-07-18T00:59:32.361Z,82.65
2023-07-18T01:04:33.935Z,83.10
2023-07-18T01:09:35.525Z,83.69
2023-07-18T01:14:37.099Z,85.11
2023-07-18T01:19:38.917Z,85.76
2023-07-18T01:24:40.688Z,85.28
2023-07-18T01:29:42.096Z,85.09
2023-07-18T01:34:43.484Z,85.43
2023-07-18T01:39:45.377Z,85.33
2023-07-18T01:44:46.825Z,85.42
2023-07-18T01:49:48.639Z,85.37
2023-07-18T01:54:50.049Z,85.22
2023-07-18T01:59:53.577Z,85.58
2023-07-18T02:04:57.051Z,85.51
2023-07-18T02:10:00.969Z,85.57
2023-07-18T02:15:06.474Z,85.67
2023-07-18T02:20:10.519Z,85.84
2023-07-18T02:25:13.223Z,86.30
2023-07-18T02:30:15.406Z,86.55
2023-07-18T02:35:20.020Z,87.50
2023-07-18T02:40:22.952Z,87.38
2023-07-18T02:45:24.583Z,88.34
2023-07-18T02:50:27.340Z,88.39
2023-07-18T02:55:29.066Z,88.35
2023-07-18T03:00:32.559Z,89.76
2023-07-18T03:05:34.344Z,90.15
2023-07-18T03:10:38.802Z,89.83
2023-07-18T03:15:41.135Z,90.56
2023-07-18T03:20:42.707Z,90.94
2023-07-18T03:25:44.945Z,91.54
2023-07-18T03:30:46.790Z,91.46
2023-07-18T03:35:51.086Z,91.86
2023-07-18T03:40:54.061Z,91.69
2023-07-18T03:45:56.105Z,91.26
2023-07-18T03:50:57.705Z,92.12
2023-07-18T03:56:07.195Z,91.84
2023-07-18T04:01:11.556Z,92.70
2023-07-18T04:06:13.201Z,92.49
2023-07-18T04:11:14.799Z,92.04
2023-07-18T04:16:16.526Z,91.91
2023-07-18T04:21:18.384Z,91.65
2023-07-18T04:26:20.158Z,91.68
2023-07-18T04:31:22.217Z,91.26
2023-07-18T04:36:25.483Z,90.84
2023-07-18T04:41:30.743Z,89.48
2023-07-18T04:46:39.713Z,88.73
2023-07-18T04:51:41.591Z,87.41
2023-07-18T04:56:43.674Z,85.87
2023-07-18T05:01:45.365Z,85.54
2023-07-18T05:06:46.995Z,85.58
2023-07-18T05:11:48.915Z,85.21
2023-07-18T05:16:50.544Z,84.84
2023-07-18T05:21:52.125Z,85.44
2023-07-18T05:26:54.094Z,82.61
2023-07-18T05:31:59.682Z,77.90
2023-07-18T05:37:02.157Z,77.99
2023-07-18T05:42:03.942Z,76.48
2023-07-18T05:47:06.389Z,75.64
2023-07-18T05:52:08.240Z,73.07
2023-07-18T05:57:10.318Z,71.31
2023-07-18T06:02:12.223Z,71.35
2023-07-18T06:07:14.051Z,68.21
2023-07-18T06:12:15.647Z,65.32
2023-07-18T06:17:17.760Z,63.95
2023-07-18T06:22:19.549Z,62.54
2023-07-18T06:27:21.228Z,62.30
2023-07-18T06:32:25.122Z,61.75
2023-07-18T06:37:26.888Z,60.63
2023-07-18T06:42:28.437Z,60.17
2023-07-18T06:47:30.110Z,58.50
2023-07-18T06:52:34.766Z,58.15
2023-07-18T06:57:37.885Z,57.32
2023-07-18T07:02:39.713Z,56.27
2023-07-18T07:07:41.662Z,56.15
2023-07-18T07:12:43.301Z,55.93
2023-07-18T07:17:47.724Z,54.85
2023-07-18T07:22:49.759Z,54.75
2023-07-18T07:27:51.446Z,53.73
2023-07-18T07:32:53.354Z,54.45
2023-07-18T07:37:55.299Z,54.30
2023-07-18T07:42:56.906Z,51.87
2023-07-18T07:47:58.702Z,52.73
2023-07-18T07:53:00.529Z,51.82
2023-07-18T07:58:02.128Z,51.84
2023-07-18T08:03:03.774Z,52.36
2023-07-18T08:08:05.832Z,50.25
2023-07-18T08:13:07.522Z,49.80
2023-07-18T08:18:09.178Z,50.00
2023-07-18T08:23:10.993Z,49.96
2023-07-18T08:28:12.699Z,49.53
2023-07-18T08:33:16.463Z,50.79
2023-07-18T08:38:18.391Z,50.15
2023-07-18T08:43:20.132Z,49.34
2023-07-18T08:48:21.865Z,50.24
2023-07-18T08:53:23.687Z,49.77
2023-07-18T08:58:27.198Z,49.30
2023-07-18T09:03:28.935Z,47.52
2023-07-18T09:08:45.800Z,47.99
2023-07-18T09:13:48.447Z,48.16
2023-07-18T09:18:51.280Z,46.92
2023-07-18T09:23:54.238Z,46.05
2023-07-18T09:28:57.026Z,45.78
2023-07-18T09:33:58.761Z,46.19
2023-07-18T09:39:01.194Z,45.08
2023-07-18T09:44:26.916Z,44.09
2023-07-18T09:54:35.017Z,43.81
2023-07-18T09:59:39.778Z,43.54
2023-07-18T10:04:41.558Z,43.08
2023-07-18T10:09:43.641Z,42.72
2023-07-18T10:14:57.715Z,42.13
2023-07-18T10:19:59.715Z,42.05
2023-07-18T10:25:08.416Z,41.04
2023-07-18T10:30:14.464Z,41.08
2023-07-18T10:35:19.091Z,41.79
2023-07-18T10:40:37.959Z,41.23
2023-07-18T10:45:44.064Z,41.26
2023-07-18T10:50:47.688Z,41.59
2023-07-18T10:55:50.088Z,42.45
2023-07-18T11:00:52.308Z,42.76
2023-07-18T11:05:54.788Z,43.01
2023-07-18T11:11:01.724Z,42.71
2023-07-18T11:16:15.327Z,42.46
2023-07-18T11:21:21.054Z,42.28
2023-07-18T11:26:22.875Z,42.49
2023-07-18T11:31:39.564Z,42.75
2023-07-18T11:36:43.690Z,41.55
2023-07-18T11:41:46.005Z,41.89
2023-07-18T11:46:47.615Z,41.69
2023-07-18T11:51:49.461Z,40.54
2023-07-18T11:56:51.067Z,40.24
2023-07-18T12:01:52.734Z,40.38
2023-07-18T12:06:54.601Z,40.65
2023-07-18T12:11:56.368Z,39.62
2023-07-18T12:16:58.134Z,39.87
2023-07-18T12:21:59.924Z,40.57
2023-07-18T12:27:06.661Z,40.63
2023-07-18T12:32:10.824Z,40.05
2023-07-18T12:37:12.637Z,40.30
2023-07-18T12:42:14.486Z,41.69
2023-07-18T12:47:16.216Z,41.28
2023-07-18T12:52:17.807Z,41.47
2023-07-18T12:57:19.454Z,42.09
2023-07-18T13:02:21.378Z,41.87
2023-07-18T13:07:22.969Z,41.54
2023-07-18T13:12:24.920Z,41.23
2023-07-18T13:17:26.508Z,42.08
2023-07-18T13:22:28.255Z,42.18
2023-07-18T13:27:29.891Z,42.50
2023-07-18T13:32:32.272Z,42.87
2023-07-18T13:37:34.356Z,43.25
2023-07-18T13:42:35.937Z,43.11
2023-07-18T13:47:44.546Z,43.57
2023-07-18T13:52:47.141Z,43.56
2023-07-18T13:57:48.744Z,43.87
2023-07-18T14:02:50.925Z,44.15
2023-07-18T14:07:52.631Z,44.44
2023-07-18T14:12:54.232Z,43.92
2023-07-18T14:17:55.899Z,44.15
2023-07-18T14:22:57.562Z,44.16
2023-07-18T14:27:59.486Z,44.42
2023-07-18T14:33:06.834Z,44.14
2023-07-18T14:38:09.211Z,44.25
2023-07-18T14:43:11.549Z,43.84
2023-07-18T14:48:13.169Z,44.01
2023-07-18T14:53:14.749Z,43.99
2023-07-18T14:58:16.582Z,43.74
2023-07-18T15:03:18.207Z,43.36
2023-07-18T15:08:19.818Z,43.57
2023-07-18T15:13:21.467Z,43.04
2023-07-18T15:18:23.193Z,42.29
2023-07-18T15:23:24.755Z,42.09
2023-07-18T15:28:26.558Z,42.06
2023-07-18T15:33:28.378Z,41.39
2023-07-18T15:38:29.993Z,41.58
2023-07-18T15:43:33.332Z,42.47
2023-07-18T15:48:34.983Z,42.83
2023-07-18T15:53:36.563Z,42.70
2023-07-18T15:58:38.170Z,42.54
2023-07-18T16:03:40.036Z,42.12
2023-07-18T16:08:41.871Z,42.57
2023-07-18T16:13:47.249Z,43.06
2023-07-18T16:19:01.091Z,43.33
2023-07-18T16:24:03.102Z,43.60
2023-07-18T16:29:04.687Z,44.10
2023-07-18T16:34:06.384Z,44.40
2023-07-18T16:39:07.983Z,44.65
2023-07-18T16:44:10.951Z,44.72
2023-07-18T16:49:12.676Z,45.17
2023-07-18T16:54:14.268Z,44.63
2023-07-18T16:59:15.952Z,45.01
2023-07-18T17:04:17.794Z,44.81
2023-07-18T17:09:19.567Z,45.21
2023-07-18T17:14:21.212Z,45.38
2023-07-18T17:19:22.799Z,45.77
2023-07-18T17:24:26.881Z,45.69
2023-07-18T17:29:28.571Z,48.17
2023-07-18T17:34:30.244Z,49.61
2023-07-18T17:39:36.174Z,50.29
2023-07-18T17:44:37.803Z,52.84
2023-07-18T17:49:39.370Z,54.09
2023-07-18T17:54:41.305Z,55.59
2023-07-18T17:59:42.978Z,56.88
2023-07-18T18:04:47.682Z,58.05
2023-07-18T18:09:49.314Z,59.05
2023-07-18T18:14:51.032Z,60.47
2023-07-18T18:19:52.681Z,61.57
2023-07-18T18:24:54.287Z,62.85
2023-07-18T18:29:55.891Z,64.31
2023-07-18T18:35:07.133Z,65.96
2023-07-18T18:40:10.761Z,66.68
2023-07-18T18:45:13.368Z,69.05
2023-07-18T18:50:17.028Z,70.68
2023-07-18T18:55:20.247Z,74.25
2023-07-18T19:00:22.744Z,76.35
2023-07-18T19:05:24.509Z,77.13
2023-07-18T19:10:27.752Z,76.70
2023-07-18T19:15:29.650Z,76.27
2023-07-18T19:20:31.221Z,78.50
2023-07-18T19:25:33.140Z,79.68
2023-07-18T19:30:34.863Z,80.01
2023-07-18T19:35:37.211Z,80.46
2023-07-18T19:40:38.816Z,80.97
2023-07-18T19:45:40.527Z,81.84
2023-07-18T19:50:43.921Z,82.80
2023-07-18T19:55:46.343Z,83.71
2023-07-18T20:00:47.937Z,84.69
2023-07-18T20:05:49.751Z,85.03
2023-07-18T20:10:51.365Z,85.37
2023-07-18T20:15:54.657Z,86.37
2023-07-18T20:20:56.331Z,86.96
2023-07-18T20:26:00.068Z,88.50
2023-07-18T20:31:03.565Z,89.10
2023-07-18T20:36:05.407Z,88.91
2023-07-18T20:41:09.897Z,89.58
2023-07-18T20:46:14.176Z,90.01
2023-07-18T20:51:15.815Z,91.55
2023-07-18T20:56:17.462Z,92.50
2023-07-18T21:01:19.631Z,93.09
2023-07-18T21:06:21.700Z,93.10
2023-07-18T21:11:23.404Z,93.95
2023-07-18T21:16:25.361Z,94.96
2023-07-18T21:21:27.047Z,95.67
2023-07-18T21:26:28.662Z,94.78
2023-07-18T21:31:30.343Z,94.29
2023-07-18T21:36:32.070Z,93.31
2023-07-18T21:41:34.714Z,93.16
2023-07-18T21:46:36.344Z,91.94
2023-07-18T21:51:40.917Z,92.02
2023-07-18T21:56:42.516Z,92.35
2023-07-18T22:01:44.282Z,92.45
2023-07-18T22:06:45.895Z,93.08
2023-07-18T22:11:48.009Z,93.48
2023-07-18T22:16:49.691Z,93.54
2023-07-18T22:21:51.328Z,94.66
2023-07-18T22:26:52.947Z,94.95
2023-07-18T22:31:54.572Z,95.57
2023-07-18T22:36:56.342Z,96.17
2023-07-18T22:42:21.753Z,97.43
2023-07-18T22:47:23.431Z,97.26
2023-07-18T22:52:25.061Z,97.10
2023-07-18T22:57:26.707Z,96.60
2023-07-18T23:02:28.345Z,96.63
2023-07-18T23:07:30.025Z,97.10
2023-07-18T23:12:31.775Z,97.60
2023-07-18T23:17:33.368Z,98.25
2023-07-18T23:22:35.216Z,98.18
2023-07-18T23:27:37.396Z,97.70
2023-07-18T23:32:43.434Z,97.08
2023-07-18T23:37:45.086Z,96.75
2023-07-18T23:42:46.741Z,96.62
2023-07-18T23:47:48.422Z,96.75
2023-07-18T23:52:50.078Z,96.39
2023-07-18T23:57:52.004Z,96.62
